Juniata, NE (68955)

10:32 AM CST on March 03, 2015 (GMT -0600)
Oswego Park | Change Station
CLOSE
Current Station
Personal Weather Station
Location: Hastings, NE
Elevation: 1949 ft
Nearby Weather Stations

Elev 1949 ft 40.59 °N, 98.41 °W | Updated 26 seconds ago

Mostly Cloudy
Mostly Cloudy
29.3 °F
Feels Like 22 °F
N
7.8
Wind Variable Wind from NNW
Gusts 25.3 mph

Today
High -- | Low -- °F
--% Chance of Precip.
Yesterday
High -- | Low -- °F
Precip. -- in
7:05 AM 6:27 PM
Waxing Gibbous, 96% visible
Pressure 29.83 in
Visibility 10.0 miles
Clouds Mostly Cloudy 1800 ft
Overcast 3500 ft
Windchill 22 °F
Dew Point 20 °F
Humidity 67%
Rainfall 0.00 in
Snow Depth Not available.
UV 1 out of 12
Pollen 1.20 out of 12
Air Quality Not available.
Flu Activity Not available.
SPECI KHSI 031621Z AUTO 34030G35KT 10SM BKN018 OVC035 00/M06 A2983 RMK AO2 PK WND 34035/1621 T00001061

More Conditions Fewer Conditions

Pressure 29.83 in
Visibility 10.0 miles
Clouds Mostly Cloudy 1800 ft
Overcast 3500 ft
Windchill 22 °F
Dew Point 20 °F
Humidity 67%
Rainfall 0.00 in
Snow Depth Not available.
UV 1 out of 12
Pollen 1.20 out of 12
Air Quality Not available.
Flu Activity Not available.
SPECI KHSI 031621Z AUTO 34030G35KT 10SM BKN018 OVC035 00/M06 A2983 RMK AO2 PK WND 34035/1621 T00001061

More Conditions Fewer Conditions

10-Day Weather Forecast

Almanac

Astronomy

Mar. 03, 2015 Rise Set
Actual Time
Civil Twilight
Nautical Twilight
Astronomical Twilight
Moon
Length of Visible Light
Length of Day
Tomorrow will be .
, % of the Moon is Illuminated

Today's Extremes

State Highs State Lows

Community

WunderPhotos

Upload Photos

1,802,164 photos uploaded!

WunderBlogs® & News

Nearby

Air Quality

  Air Quality AQ Index Pollutant
Not available.

Snow Depth

Station Depth Elevation

Earthquake Activity

City Distance Mag. Time & Date
Minimum magnitude displayed is 2.5.

Coastal Water Temperatures

Place Temperature

Nearby Weather Stations